Time;durP1;ratioP1;P1;durP2;ratioP2;P2;SDS_P1;SDS_P2;PMS_P1;PMS_P2;Temp;Humidity;BMP_temperature;BMP_pressure;BME280_temperature;BME280_humidity;BME280_pressure;Samples;Min_cycle;Max_cycle;Signal;HPM_P1;HPM_P2
2022/05/01 00:02:26;;;;;;;4.50;3.10;;;;;;;13.47;43.81;101144.77;117574;1182;21847;-46
2022/05/01 00:04:55;;;;;;;6.20;2.80;;;;;;;13.51;43.93;101143.48;117578;1183;23426;-45
2022/05/01 00:07:24;;;;;;;5.40;3.10;;;;;;;13.55;43.93;101141.67;117531;1184;22966;-55
2022/05/01 00:09:54;;;;;;;4.70;3.40;;;;;;;13.59;43.94;101139.88;117595;1183;23515;-47
2022/05/01 00:12:23;;;;;;;7.30;3.30;;;;;;;13.63;43.99;101136.13;117581;1183;23535;-46
2022/05/01 00:14:51;;;;;;;5.30;3.30;;;;;;;13.67;43.98;101138.54;117604;1183;22148;-55
2022/05/01 00:17:19;;;;;;;6.10;3.20;;;;;;;13.69;43.98;101138.48;117559;1183;23432;-55
2022/05/01 00:19:48;;;;;;;6.40;3.30;;;;;;;13.72;44.00;101138.10;117588;1183;22770;-55
2022/05/01 00:22:20;;;;;;;4.10;2.70;;;;;;;13.75;44.04;101137.37;117529;1184;23442;-55
2022/05/01 00:24:48;;;;;;;5.90;3.10;;;;;;;13.77;44.01;101138.77;117365;1185;24219;-46
2022/05/01 00:27:17;;;;;;;4.50;3.30;;;;;;;13.78;43.96;101142.27;117491;1185;23476;-55
2022/05/01 00:29:45;;;;;;;4.60;3.10;;;;;;;13.78;44.01;101145.97;117569;1183;23593;-55
2022/05/01 00:32:14;;;;;;;4.50;3.20;;;;;;;13.77;44.01;101148.09;117653;1183;21837;-46
2022/05/01 00:37:29;;;;;;;5.20;3.20;;;;;;;13.70;43.88;101144.83;117533;1183;23569;-55
2022/05/01 00:39:58;;;;;;;5.00;3.00;;;;;;;13.67;43.99;101147.89;117572;1179;23442;-46
2022/05/01 00:42:27;;;;;;;5.70;3.00;;;;;;;13.61;43.96;101152.36;117575;1183;23461;-55
2022/05/01 00:44:55;;;;;;;5.10;3.00;;;;;;;13.55;43.95;101152.08;117542;1183;22711;-55
2022/05/01 00:47:24;;;;;;;5.80;3.30;;;;;;;13.48;44.08;101151.46;117500;1183;22944;-47
2022/05/01 00:49:53;;;;;;;5.20;3.30;;;;;;;13.44;44.11;101153.09;117556;1183;24315;-55
2022/05/01 00:52:25;;;;;;;4.40;2.90;;;;;;;13.43;44.19;101150.98;117580;1184;23441;-47
2022/05/01 00:54:54;;;;;;;6.50;3.70;;;;;;;13.44;44.22;101153.63;117466;1185;23469;-55
2022/05/01 00:57:22;;;;;;;4.60;3.10;;;;;;;13.47;44.29;101154.46;117624;1183;21845;-56
2022/05/01 00:59:50;;;;;;;6.50;3.20;;;;;;;13.47;44.38;101150.23;117398;1185;23439;-47
2022/05/01 01:02:18;;;;;;;4.60;2.90;;;;;;;13.48;44.36;101147.58;117584;1182;21842;-47
2022/05/01 01:04:47;;;;;;;6.10;3.40;;;;;;;13.48;44.42;101142.64;117461;1185;23461;-56
2022/05/01 01:07:16;;;;;;;7.20;3.20;;;;;;;13.50;44.30;101143.84;117569;1182;23464;-46
2022/05/01 01:09:48;;;;;;;4.50;3.30;;;;;;;13.52;44.42;101142.41;117586;1183;21960;-46
2022/05/01 01:15:10;;;;;;;5.20;3.60;;;;;;;13.49;44.50;101143.33;117573;1183;23442;-47
2022/05/01 01:17:41;;;;;;;4.70;3.30;;;;;;;13.48;44.42;101146.70;117435;1185;23455;-56
2022/05/01 01:20:11;;;;;;;5.00;3.40;;;;;;;13.47;44.50;101143.70;117517;1186;21843;-56
2022/05/01 01:22:40;;;;;;;4.80;3.50;;;;;;;13.46;44.57;101142.33;117507;1185;22026;-47
2022/05/01 01:25:11;;;;;;;4.30;3.60;;;;;;;13.47;44.53;101142.13;117539;1179;22173;-46
2022/05/01 01:27:40;;;;;;;5.50;3.60;;;;;;;13.47;44.61;101143.88;117617;1185;23468;-46
2022/05/01 01:32:55;;;;;;;4.60;3.50;;;;;;;13.46;44.71;101143.20;117520;1183;23535;-46
2022/05/01 01:35:24;;;;;;;6.00;4.30;;;;;;;13.45;44.69;101141.09;117453;1185;24149;-55
2022/05/01 01:37:53;;;;;;;6.00;3.70;;;;;;;13.45;44.77;101145.15;117431;1185;21941;-46
2022/05/01 01:40:23;;;;;;;6.80;4.50;;;;;;;13.46;44.76;101141.27;117554;1183;23469;-56
2022/05/01 01:42:53;;;;;;;5.50;4.00;;;;;;;13.45;44.85;101144.64;117553;1183;23544;-55
2022/05/01 01:45:21;;;;;;;4.70;3.50;;;;;;;13.44;44.71;101145.17;117526;1186;21879;-56
2022/05/01 01:47:50;;;;;;;8.10;3.80;;;;;;;13.43;44.71;101146.95;117589;1183;21846;-56
2022/05/01 01:50:18;;;;;;;8.70;3.80;;;;;;;13.42;44.80;101146.77;117558;1183;24215;-46
2022/05/01 01:52:49;;;;;;;4.90;3.50;;;;;;;13.40;44.82;101145.71;117508;1186;21853;-55
2022/05/01 01:55:18;;;;;;;5.50;3.60;;;;;;;13.39;44.96;101146.24;117589;1183;23531;-55
2022/05/01 01:57:46;;;;;;;5.00;3.90;;;;;;;13.38;44.84;101145.55;117537;1185;23441;-46
2022/05/01 02:00:15;;;;;;;6.00;3.90;;;;;;;13.36;44.95;101147.87;117382;1184;23464;-55
2022/05/01 02:02:43;;;;;;;6.30;4.40;;;;;;;13.36;44.90;101149.98;117452;1184;21866;-56
2022/05/01 02:05:12;;;;;;;7.30;4.10;;;;;;;13.37;44.99;101150.51;117620;1186;23028;-46
2022/05/01 02:07:40;;;;;;;4.90;3.60;;;;;;;13.38;44.99;101152.95;117635;1183;24149;-54
2022/05/01 02:10:09;;;;;;;6.60;4.20;;;;;;;13.41;45.04;101151.70;117532;1183;21848;-56
2022/05/01 02:12:37;;;;;;;5.40;3.70;;;;;;;13.41;44.95;101152.23;117618;1183;23602;-55
2022/05/01 02:15:09;;;;;;;5.20;3.90;;;;;;;13.38;44.91;101155.25;117514;1183;21848;-56
2022/05/01 02:17:41;;;;;;;5.60;4.40;;;;;;;13.36;44.91;101155.45;117574;1183;22151;-56
2022/05/01 02:20:10;;;;;;;6.10;4.20;;;;;;;13.34;44.96;101159.70;117526;1184;22949;-46
2022/05/01 02:22:40;;;;;;;5.20;3.80;;;;;;;13.32;45.00;101164.13;117531;1184;22613;-55
2022/05/01 02:25:09;;;;;;;6.80;4.20;;;;;;;13.30;45.03;101168.20;117556;1183;23456;-46
2022/05/01 02:27:38;;;;;;;6.60;4.90;;;;;;;13.29;45.10;101164.67;117512;1183;22922;-47
2022/05/01 02:30:08;;;;;;;5.50;4.10;;;;;;;13.28;45.03;101168.58;117627;1183;22727;-56
2022/05/01 02:32:40;;;;;;;6.00;3.90;;;;;;;13.27;44.99;101166.81;117574;1183;24184;-55
2022/05/01 02:35:10;;;;;;;6.10;4.40;;;;;;;13.25;45.08;101169.84;117565;1183;23477;-55
2022/05/01 02:37:38;;;;;;;6.10;4.30;;;;;;;13.23;45.09;101172.52;117552;1183;21846;-56
2022/05/01 02:40:07;;;;;;;6.10;4.50;;;;;;;13.20;45.17;101167.96;117544;1183;24214;-47
2022/05/01 02:42:36;;;;;;;5.60;4.20;;;;;;;13.18;45.06;101173.97;117600;1183;21846;-46
2022/05/01 02:45:06;;;;;;;8.30;5.10;;;;;;;13.17;45.18;101174.34;117480;1184;24241;-46
2022/05/01 02:47:34;;;;;;;6.80;4.10;;;;;;;13.16;45.17;101177.86;117517;1184;23474;-46
2022/05/01 02:50:03;;;;;;;5.70;4.20;;;;;;;13.16;45.20;101180.52;117564;1183;23534;-47
2022/05/01 02:52:31;;;;;;;5.60;4.20;;;;;;;13.16;45.24;101183.69;117506;1183;23548;-55
2022/05/01 02:54:59;;;;;;;7.80;4.40;;;;;;;13.13;45.27;101187.23;117361;1180;22922;-47
2022/05/01 02:57:28;;;;;;;5.30;4.20;;;;;;;13.12;45.27;101187.77;117559;1183;23588;-55
2022/05/01 02:59:57;;;;;;;6.50;4.60;;;;;;;13.08;45.23;101188.50;117672;1183;23553;-56
2022/05/01 03:02:26;;;;;;;5.70;4.10;;;;;;;13.07;45.37;101190.10;117580;1183;22852;-55
2022/05/01 03:04:55;;;;;;;7.50;4.30;;;;;;;13.06;45.36;101193.64;117389;1185;23541;-55
2022/05/01 03:07:23;;;;;;;6.20;4.20;;;;;;;13.05;45.35;101191.89;117592;1183;22825;-55
2022/05/01 03:09:52;;;;;;;6.20;4.40;;;;;;;13.06;45.40;101193.98;117591;1183;23441;-47
2022/05/01 03:12:21;;;;;;;5.30;4.00;;;;;;;13.07;45.43;101194.34;117567;1183;22798;-48
2022/05/01 03:14:50;;;;;;;7.30;5.00;;;;;;;13.05;45.50;101195.58;117418;1183;21886;-56
2022/05/01 03:17:19;;;;;;;5.80;4.40;;;;;;;13.04;45.38;101196.13;117537;1182;24764;-56
2022/05/01 03:22:35;;;;;;;6.50;4.20;;;;;;;13.00;45.46;101198.11;117513;1185;24156;-47
2022/05/01 03:25:04;;;;;;;6.60;4.50;;;;;;;12.97;45.49;101200.60;117598;1183;24218;-56
2022/05/01 03:27:32;;;;;;;8.30;4.70;;;;;;;12.94;45.54;101199.75;117577;1182;21846;-56
2022/05/01 03:30:16;;;;;;;7.50;4.60;;;;;;;12.92;45.64;101200.30;117550;1183;23474;-55
2022/05/01 03:32:45;;;;;;;8.60;4.10;;;;;;;12.92;45.55;101202.93;117569;1183;23468;-47
2022/05/01 03:35:14;;;;;;;8.70;4.90;;;;;;;12.94;45.72;101202.92;117626;1182;21842;-48
2022/05/01 03:37:43;;;;;;;7.90;5.20;;;;;;;12.98;45.78;101201.66;117596;1183;24795;-57
2022/05/01 03:40:15;;;;;;;11.60;5.20;;;;;;;13.02;45.81;101204.61;117533;1183;23552;-48
2022/05/01 03:42:44;;;;;;;11.30;4.90;;;;;;;13.04;45.65;101211.27;117574;1184;21886;-48
2022/05/01 03:45:12;;;;;;;11.90;5.80;;;;;;;13.03;45.70;101215.70;117535;1183;23705;-48
2022/05/01 03:47:40;;;;;;;8.30;5.00;;;;;;;13.02;45.82;101214.66;117575;1187;23570;-57
2022/05/01 03:50:09;;;;;;;6.20;5.00;;;;;;;13.02;45.85;101220.13;117484;1184;23487;-57
2022/05/01 03:52:38;;;;;;;9.80;5.00;;;;;;;13.03;45.86;101217.46;117577;1183;21845;-47
2022/05/01 03:55:07;;;;;;;9.40;4.80;;;;;;;13.06;45.95;101216.04;117570;1183;21844;-50
2022/05/01 03:57:37;;;;;;;11.40;5.00;;;;;;;13.09;45.93;101218.64;117647;1182;21969;-58
2022/05/01 04:00:10;;;;;;;7.00;4.70;;;;;;;13.13;45.93;101212.97;117562;1182;24160;-57
2022/05/01 04:02:42;;;;;;;8.30;4.90;;;;;;;13.15;45.79;101214.53;117533;1183;21875;-57
2022/05/01 04:05:12;;;;;;;11.10;5.00;;;;;;;13.15;45.82;101219.81;117509;1183;23461;-57
2022/05/01 04:07:41;;;;;;;9.60;5.60;;;;;;;13.18;45.99;101223.32;117629;1182;21852;-56
2022/05/01 04:10:09;;;;;;;7.40;4.80;;;;;;;13.22;46.01;101225.39;117554;1183;23039;-56
2022/05/01 04:12:39;;;;;;;9.00;5.30;;;;;;;13.26;46.04;101228.35;117554;1183;21854;-48
2022/05/01 04:15:09;;;;;;;9.40;4.90;;;;;;;13.27;45.95;101229.74;117553;1183;21842;-47
2022/05/01 04:17:39;;;;;;;7.10;4.40;;;;;;;13.27;46.01;101232.20;117576;1183;23711;-55
2022/05/01 04:20:12;;;;;;;10.20;5.30;;;;;;;13.28;45.99;101229.20;117499;1185;23563;-56
2022/05/01 04:22:43;;;;;;;8.90;4.60;;;;;;;13.31;46.05;101227.41;117524;1183;22892;-48
2022/05/01 04:25:20;;;;;;;6.80;4.40;;;;;;;13.33;45.95;101227.56;117426;1185;22925;-48
2022/05/01 04:28:01;;;;;;;7.90;5.40;;;;;;;13.35;46.06;101230.53;117506;1183;23556;-56
2022/05/01 04:30:33;;;;;;;6.90;5.10;;;;;;;13.39;46.00;101229.80;117573;1183;21947;-47
2022/05/01 04:33:06;;;;;;;6.70;4.40;;;;;;;13.43;46.22;101229.97;117620;1183;21966;-47
2022/05/01 04:35:38;;;;;;;8.10;4.80;;;;;;;13.43;46.17;101230.68;117525;1183;24149;-56
2022/05/01 04:38:09;;;;;;;8.20;5.40;;;;;;;13.45;46.07;101231.91;117582;1183;22991;-47
2022/05/01 04:40:46;;;;;;;6.80;5.20;;;;;;;13.48;46.29;101231.66;117553;1183;21846;-50
2022/05/01 04:43:18;;;;;;;6.10;4.70;;;;;;;13.53;46.26;101231.45;117570;1183;22921;-48
2022/05/01 04:45:52;;;;;;;11.80;5.10;;;;;;;13.58;46.38;101224.16;117572;1183;23441;-56
2022/05/01 04:48:23;;;;;;;8.50;4.90;;;;;;;13.65;46.39;101224.09;117567;1183;24149;-47
2022/05/01 04:50:52;;;;;;;8.30;5.30;;;;;;;13.74;46.46;101223.80;117516;1183;22636;-56
2022/05/01 04:53:21;;;;;;;7.30;5.30;;;;;;;13.81;46.43;101220.20;117619;1182;21995;-49
2022/05/01 04:55:51;;;;;;;7.90;5.70;;;;;;;13.88;46.47;101220.64;117637;1182;21900;-47
2022/05/01 04:58:20;;;;;;;7.40;5.60;;;;;;;13.98;46.64;101222.27;117606;1183;22965;-56
2022/05/01 05:00:49;;;;;;;9.10;5.50;;;;;;;14.10;46.69;101221.58;117501;1185;23456;-48
2022/05/01 05:03:17;;;;;;;9.20;5.10;;;;;;;14.22;46.66;101219.48;117555;1183;22911;-55
2022/05/01 05:05:46;;;;;;;7.10;4.60;;;;;;;14.34;46.78;101222.67;117508;1182;21972;-49
2022/05/01 05:11:03;;;;;;;8.20;5.80;;;;;;;14.56;46.75;101226.23;117481;1184;24691;-56
2022/05/01 05:13:33;;;;;;;9.80;5.40;;;;;;;14.64;46.57;101222.74;117593;1183;23468;-47
2022/05/01 05:16:01;;;;;;;7.80;5.20;;;;;;;14.71;46.63;101230.80;117606;1183;21845;-47
2022/05/01 05:18:30;;;;;;;8.40;4.60;;;;;;;14.78;46.63;101231.22;117584;1183;22946;-55
2022/05/01 05:20:59;;;;;;;8.50;4.50;;;;;;;14.82;46.64;101229.02;117586;1183;22911;-47
2022/05/01 05:23:28;;;;;;;7.30;4.80;;;;;;;14.86;46.55;101229.50;117583;1183;23662;-55
2022/05/01 05:25:56;;;;;;;6.80;5.10;;;;;;;14.90;46.50;101232.96;119600;1183;21871;-56
2022/05/01 05:28:25;;;;;;;8.30;5.70;;;;;;;14.93;46.45;101236.81;117550;1185;21889;-47
2022/05/01 05:30:53;;;;;;;6.20;4.50;;;;;;;14.93;46.46;101236.27;117686;1183;21883;-55
2022/05/01 05:33:22;;;;;;;6.70;4.60;;;;;;;14.93;46.49;101240.70;117628;1183;24146;-55
2022/05/01 05:35:51;;;;;;;7.40;4.80;;;;;;;14.96;46.52;101244.35;117575;1183;21839;-55
2022/05/01 05:38:19;;;;;;;6.20;4.40;;;;;;;15.01;46.49;101243.39;117545;1183;23452;-56
2022/05/01 05:40:48;;;;;;;8.90;5.60;;;;;;;15.11;46.66;101243.05;117565;1183;23545;-56
2022/05/01 05:43:16;;;;;;;7.40;4.50;;;;;;;15.25;46.80;101238.20;117451;1184;23451;-56
2022/05/01 05:45:45;;;;;;;9.30;5.20;;;;;;;15.41;46.90;101234.18;117653;1185;24149;-47
2022/05/01 05:48:16;;;;;;;7.90;5.60;;;;;;;15.59;46.94;101231.90;117554;1181;22984;-57
2022/05/01 05:50:44;;;;;;;7.50;4.40;;;;;;;15.76;46.86;101229.42;117606;1183;23698;-57
2022/05/01 05:53:12;;;;;;;7.90;4.90;;;;;;;15.93;46.81;101230.90;117528;1183;24151;-48
2022/05/01 05:55:41;;;;;;;9.50;5.40;;;;;;;16.03;46.76;101231.74;117578;1183;22639;-47
2022/05/01 05:58:10;;;;;;;7.40;5.10;;;;;;;16.18;46.92;101236.91;117517;1183;23569;-47
2022/05/01 06:00:38;;;;;;;5.80;4.50;;;;;;;16.37;46.97;101236.32;117612;1183;23015;-57
2022/05/01 06:03:08;;;;;;;9.60;5.30;;;;;;;16.54;47.00;101235.59;117556;1183;24290;-47
2022/05/01 06:05:36;;;;;;;9.80;4.80;;;;;;;16.67;46.85;101234.73;117567;1183;22914;-47
2022/05/01 06:08:05;;;;;;;8.00;5.00;;;;;;;16.81;46.82;101232.09;117737;1183;23553;-47
2022/05/01 06:10:53;;;;;;;7.10;4.90;;;;;;;16.98;46.93;101236.84;117457;1183;21841;-56
2022/05/01 06:13:22;;;;;;;6.70;4.60;;;;;;;17.15;46.89;101236.95;117510;1183;23592;-57
2022/05/01 06:15:50;;;;;;;5.10;4.10;;;;;;;17.33;46.95;101235.40;117482;1183;22610;-48
2022/05/01 06:18:18;;;;;;;5.50;4.50;;;;;;;17.55;46.98;101235.70;117504;1184;23544;-47
2022/05/01 06:20:47;;;;;;;5.90;4.20;;;;;;;17.75;46.97;101232.31;117482;1183;21884;-48
2022/05/01 06:23:16;;;;;;;9.00;4.90;;;;;;;17.93;46.91;101232.86;117487;1183;23465;-57
2022/05/01 06:25:46;;;;;;;6.00;4.00;;;;;;;18.12;46.93;101237.65;117506;1183;24158;-56
2022/05/01 06:28:16;;;;;;;4.90;3.70;;;;;;;18.34;46.92;101234.85;117495;1183;21834;-57
2022/05/01 06:30:48;;;;;;;4.70;3.30;;;;;;;18.55;46.90;101234.02;117519;1183;21819;-57
2022/05/01 06:33:19;;;;;;;6.00;3.30;;;;;;;18.74;46.80;101233.77;117979;1183;23544;-47
2022/05/01 06:35:53;;;;;;;7.70;3.80;;;;;;;18.89;46.76;101234.69;117904;1184;22970;-48
2022/05/01 06:38:23;;;;;;;4.50;3.40;;;;;;;19.02;46.67;101236.41;117524;1183;22751;-48
2022/05/01 06:40:51;;;;;;;5.00;3.60;;;;;;;19.12;46.51;101234.48;117466;1184;22922;-56
2022/05/01 06:43:20;;;;;;;6.70;3.20;;;;;;;19.16;46.43;101230.23;117591;1185;24140;-56
2022/05/01 06:45:48;;;;;;;6.60;3.50;;;;;;;19.21;46.23;101235.95;117598;1183;23496;-48
2022/05/01 06:48:19;;;;;;;5.40;4.00;;;;;;;19.22;46.20;101234.15;117586;1183;23445;-48
2022/05/01 06:50:47;;;;;;;4.20;3.40;;;;;;;19.33;46.41;101234.66;117561;1183;24151;-48
2022/05/01 06:53:17;;;;;;;4.90;3.30;;;;;;;19.54;46.57;101231.59;117735;1183;24241;-57
2022/05/01 06:55:46;;;;;;;5.40;2.90;;;;;;;19.79;46.60;101229.98;117618;1181;21854;-48
2022/05/01 06:58:17;;;;;;;4.40;2.80;;;;;;;20.13;46.80;101226.23;117496;1184;22231;-57
2022/05/01 07:00:46;;;;;;;5.30;3.30;;;;;;;20.52;46.97;101220.24;117475;1183;22902;-56
2022/05/01 07:03:15;;;;;;;4.10;3.00;;;;;;;20.92;46.91;101220.77;117477;1184;21849;-48
2022/05/01 07:05:44;;;;;;;3.70;2.70;;;;;;;21.32;46.95;101222.42;117509;1185;23468;-48
2022/05/01 07:08:13;;;;;;;4.30;3.20;;;;;;;21.67;46.91;101222.33;117547;1185;22902;-55
2022/05/01 07:10:46;;;;;;;5.60;2.60;;;;;;;22.06;46.73;101228.23;117454;1186;23532;-48
2022/05/01 07:13:15;;;;;;;4.00;2.50;;;;;;;22.39;46.60;101225.60;117427;1185;23468;-49
2022/05/01 07:15:44;;;;;;;5.10;2.60;;;;;;;22.70;46.46;101223.94;117523;1186;21828;-57
2022/05/01 07:18:12;;;;;;;4.20;2.40;;;;;;;23.02;46.36;101218.56;117566;1183;23458;-49
2022/05/01 07:20:42;;;;;;;3.10;2.00;;;;;;;23.37;46.33;101216.27;117608;1183;22218;-57
2022/05/01 07:23:10;;;;;;;5.60;2.60;;;;;;;23.72;46.21;101209.20;117532;1183;23442;-56
2022/05/01 07:25:38;;;;;;;3.70;2.30;;;;;;;24.06;46.11;101208.11;117515;1184;21877;-48
2022/05/01 07:28:07;;;;;;;3.80;2.20;;;;;;;24.36;45.99;101206.09;117516;1184;22924;-57
2022/05/01 07:30:36;;;;;;;5.80;2.60;;;;;;;24.65;45.84;101204.80;117646;1183;24233;-56
2022/05/01 07:33:05;;;;;;;4.30;2.30;;;;;;;24.87;45.54;101204.92;117445;1184;23592;-48
2022/05/01 07:35:33;;;;;;;4.50;2.20;;;;;;;25.05;45.29;101202.95;117525;1180;23731;-56
2022/05/01 07:38:02;;;;;;;4.10;2.30;;;;;;;25.22;45.20;101201.92;117505;1183;24182;-56
2022/05/01 07:40:30;;;;;;;4.40;1.90;;;;;;;25.42;45.23;101204.14;117546;1183;23562;-50
2022/05/01 07:42:59;;;;;;;4.70;3.00;;;;;;;25.58;45.05;101201.02;117583;1183;21859;-56
2022/05/01 07:45:27;;;;;;;3.30;2.00;;;;;;;25.57;44.56;101201.65;117537;1183;24152;-48
2022/05/01 07:47:58;;;;;;;3.00;2.00;;;;;;;25.64;44.72;101196.52;117571;1183;22016;-48
2022/05/01 07:50:28;;;;;;;3.50;2.00;;;;;;;25.78;44.64;101191.67;117540;1179;24236;-48
2022/05/01 07:52:57;;;;;;;3.10;2.20;;;;;;;25.79;44.21;101188.92;117389;1185;21985;-55
2022/05/01 07:55:25;;;;;;;3.40;2.10;;;;;;;25.85;44.32;101189.42;117414;1185;21847;-49
2022/05/01 07:57:53;;;;;;;3.80;2.00;;;;;;;26.10;44.42;101185.85;117451;1186;22645;-48
2022/05/01 08:00:22;;;;;;;3.10;2.10;;;;;;;26.36;44.10;101184.40;117533;1186;23544;-49
2022/05/01 08:05:39;;;;;;;2.80;1.60;;;;;;;26.76;43.99;101181.71;117556;1183;23375;-48
2022/05/01 08:08:07;;;;;;;3.10;1.80;;;;;;;27.05;44.20;101176.52;117643;1185;23566;-52
2022/05/01 08:10:35;;;;;;;4.30;2.00;;;;;;;27.32;44.12;101173.42;117615;1183;22310;-48
2022/05/01 08:13:04;;;;;;;3.30;2.10;;;;;;;27.55;43.83;101168.58;117592;1183;23579;-56
2022/05/01 08:15:32;;;;;;;3.70;2.10;;;;;;;27.73;43.48;101162.97;117671;1183;23545;-49
2022/05/01 08:21:05;;;;;;;4.10;1.90;;;;;;;27.97;43.27;101159.38;117385;1185;23548;-56
2022/05/01 08:23:38;;;;;;;2.80;1.50;;;;;;;28.18;43.13;101156.84;117414;1185;23547;-56
2022/05/01 08:26:07;;;;;;;2.90;1.60;;;;;;;28.32;42.74;101154.66;117377;1185;23538;-55
2022/05/01 08:28:37;;;;;;;2.80;1.50;;;;;;;28.41;42.74;101154.42;117400;1185;21854;-49
2022/05/01 08:31:05;;;;;;;3.20;1.60;;;;;;;28.48;42.77;101152.59;117423;1185;21844;-56
2022/05/01 08:33:35;;;;;;;3.80;1.90;;;;;;;28.58;42.53;101152.91;117435;1185;21840;-56
2022/05/01 08:36:05;;;;;;;3.80;1.70;;;;;;;28.66;42.27;101152.49;117424;1185;23552;-56
2022/05/01 08:38:35;;;;;;;4.50;1.30;;;;;;;28.74;42.14;101150.27;117416;1185;21845;-56
2022/05/01 08:41:04;;;;;;;3.10;1.60;;;;;;;28.86;42.33;101148.33;117426;1186;23570;-56
2022/05/01 08:43:34;;;;;;;4.50;1.40;;;;;;;29.08;42.04;101147.45;117374;1185;23572;-55
2022/05/01 08:46:23;;;;;;;3.00;1.60;;;;;;;29.26;41.79;101145.36;117437;1185;23576;-57
2022/05/01 08:48:52;;;;;;;2.60;1.60;;;;;;;29.39;41.70;101139.67;117334;1188;23554;-57
2022/05/01 08:51:21;;;;;;;2.90;1.60;;;;;;;29.57;41.83;101137.09;117425;1185;23549;-56
2022/05/01 08:53:49;;;;;;;4.90;1.60;;;;;;;29.81;41.81;101134.62;117480;1185;23557;-57
2022/05/01 08:56:18;;;;;;;3.20;1.60;;;;;;;30.04;41.39;101132.05;117445;1185;24146;-49
2022/05/01 08:58:46;;;;;;;2.60;1.40;;;;;;;30.22;41.25;101130.05;117451;1185;23567;-57
2022/05/01 09:01:15;;;;;;;2.90;1.60;;;;;;;30.32;40.97;101128.87;117328;1185;23548;-56
2022/05/01 10:54:12;;;;;;;5.20;2.10;;;;;;;22.06;39.93;101114.30;115183;1202;547772;-49
2022/05/01 10:57:05;;;;;;;2.90;1.80;;;;;;;23.47;38.16;101105.80;117157;1186;23111;-55
2022/05/01 10:59:46;;;;;;;4.00;1.80;;;;;;;23.65;38.10;101102.24;116924;1188;22641;-54
2022/05/01 11:02:48;;;;;;;3.10;1.60;;;;;;;23.82;38.07;101099.52;117015;1188;22201;-49
2022/05/01 11:05:46;;;;;;;2.60;1.60;;;;;;;23.97;37.96;101098.02;117234;1186;21845;-55
2022/05/01 11:08:24;;;;;;;3.10;1.90;;;;;;;24.10;37.94;101095.46;117310;1186;23454;-55
2022/05/01 11:10:55;;;;;;;3.00;1.50;;;;;;;24.23;37.89;101094.34;117285;1186;21857;-49
2022/05/01 11:13:35;;;;;;;4.00;1.60;;;;;;;24.38;38.01;101095.67;117320;1186;23601;-48
2022/05/01 11:16:04;;;;;;;3.50;1.60;;;;;;;24.49;38.00;101094.98;116873;1188;21846;-55
2022/05/01 11:18:34;;;;;;;2.50;1.50;;;;;;;24.61;38.02;101093.00;116968;1182;22958;-48
2022/05/01 11:21:21;;;;;;;2.80;1.40;;;;;;;24.76;37.99;101092.02;116883;1189;22930;-49
2022/05/01 11:23:57;;;;;;;1.80;1.30;;;;;;;24.91;37.92;101086.80;117138;1187;24793;-55
2022/05/01 11:26:26;;;;;;;2.40;1.50;;;;;;;25.06;37.85;101083.00;117133;1188;21909;-49
2022/05/01 11:28:55;;;;;;;1.80;1.30;;;;;;;25.18;37.65;101084.58;117131;1189;24156;-49
2022/05/01 11:31:36;;;;;;;4.20;1.30;;;;;;;25.28;37.66;101085.56;117336;1186;21848;-49
2022/05/01 11:34:17;;;;;;;3.90;1.30;;;;;;;25.45;37.89;101081.50;117421;1186;23014;-55
2022/05/01 11:36:56;;;;;;;3.00;1.20;;;;;;;25.68;37.83;101077.86;117310;1186;21862;-56
2022/05/01 11:39:48;;;;;;;3.80;1.50;;;;;;;25.97;37.92;101076.30;117023;1188;22933;-55
2022/05/01 11:42:24;;;;;;;2.50;1.50;;;;;;;26.40;38.00;101076.13;117148;1189;23704;-49
2022/05/01 11:44:57;;;;;;;2.60;1.40;;;;;;;26.82;37.91;101074.05;117305;1186;23550;-55
2022/05/01 11:47:26;;;;;;;2.50;1.30;;;;;;;27.13;37.81;101067.88;116990;1187;22227;-49
2022/05/01 11:49:54;;;;;;;2.90;1.50;;;;;;;27.42;37.68;101064.06;117030;1188;21960;-55
2022/05/01 11:52:24;;;;;;;3.10;1.60;;;;;;;27.75;37.70;101057.73;116967;1186;21939;-55
2022/05/01 11:54:53;;;;;;;6.40;1.60;;;;;;;28.10;37.75;101054.56;116891;1188;21858;-49
2022/05/01 12:03:03;;;;;;;2.30;1.30;;;;;;;29.42;37.48;101045.54;116964;1186;21852;-49
2022/05/01 12:05:40;;;;;;;2.70;1.20;;;;;;;29.83;37.50;101039.36;116926;1186;21972;-55
2022/05/01 12:08:08;;;;;;;2.40;1.20;;;;;;;30.32;37.47;101031.86;116936;1189;23638;-56
2022/05/01 12:10:43;;;;;;;2.10;1.20;;;;;;;30.87;37.58;101027.11;117068;1188;23542;-51
2022/05/01 12:13:22;;;;;;;4.20;1.30;;;;;;;31.45;37.37;101025.06;117202;1186;23506;-51
2022/05/01 12:15:51;;;;;;;2.90;1.20;;;;;;;32.02;37.44;101022.04;116987;1188;23762;-55
2022/05/01 12:18:20;;;;;;;2.40;1.60;;;;;;;32.55;37.21;101014.20;116998;1188;21846;-51
2022/05/01 12:20:49;;;;;;;2.80;1.30;;;;;;;32.93;36.83;101011.29;116946;1187;21861;-50
2022/05/01 12:23:21;;;;;;;4.90;3.40;;;;;;;33.17;36.41;101009.64;116893;1188;22827;-50
2022/05/01 12:25:51;;;;;;;3.30;2.30;;;;;;;33.18;35.88;101009.23;116761;1188;22925;-52
2022/05/01 12:28:20;;;;;;;4.20;2.40;;;;;;;33.12;35.99;101002.35;117933;1186;22192;-51
2022/05/01 12:30:53;;;;;;;5.70;4.80;;;;;;;33.24;35.92;101001.59;117087;1188;23566;-56
2022/05/01 12:33:24;;;;;;;6.90;6.00;;;;;;;33.11;34.85;101001.02;117101;1186;21842;-57
2022/05/01 12:35:58;;;;;;;3.00;2.20;;;;;;;32.57;34.73;100999.27;117028;1182;21862;-51
2022/05/01 12:38:28;;;;;;;12.50;11.10;;;;;;;32.26;34.56;100999.89;117246;1186;24256;-51
2022/05/01 12:44:22;;;;;;;2.50;1.60;;;;;;;31.37;34.59;100997.36;117150;1186;22652;-56
2022/05/01 12:46:53;;;;;;;2.30;1.40;;;;;;;31.37;34.74;100996.06;117015;1188;22831;-55
2022/05/01 12:49:28;;;;;;;6.00;1.70;;;;;;;31.41;34.58;100994.79;117221;1186;23553;-50
2022/05/01 12:51:56;;;;;;;3.50;1.50;;;;;;;31.44;34.61;100992.17;117199;1186;21934;-55
2022/05/01 12:54:24;;;;;;;2.30;1.30;;;;;;;31.49;34.50;100997.86;117280;1185;23577;-50
2022/05/01 12:56:55;;;;;;;2.60;1.50;;;;;;;31.43;34.25;100996.96;117216;1186;23685;-56
2022/05/01 12:59:31;;;;;;;1.50;1.00;;;;;;;31.09;33.62;100998.00;117110;1185;22009;-56
2022/05/01 13:01:59;;;;;;;2.90;1.60;;;;;;;30.38;33.12;101001.08;117225;1185;22532;-50
2022/05/01 13:04:29;;;;;;;3.60;1.50;;;;;;;29.57;33.03;101005.81;117373;1186;23450;-56
2022/05/01 13:06:57;;;;;;;2.50;1.40;;;;;;;28.73;32.70;101005.55;117179;1183;23445;-48
2022/05/01 13:09:26;;;;;;;7.50;3.00;;;;;;;27.72;31.98;101003.09;117104;1186;23582;-56
2022/05/01 13:12:05;;;;;;;3.70;1.80;;;;;;;26.87;32.38;101011.04;117336;1182;21881;-56
2022/05/01 13:14:33;;;;;;;3.00;1.40;;;;;;;26.31;32.26;101011.85;117258;1185;23612;-50
2022/05/01 13:17:09;;;;;;;3.10;1.80;;;;;;;25.74;31.67;101017.98;117136;1186;21845;-50
2022/05/01 13:19:38;;;;;;;8.70;1.60;;;;;;;25.05;31.75;101023.05;117259;1185;22975;-56
2022/05/01 13:22:07;;;;;;;6.80;1.70;;;;;;;24.52;32.22;101019.52;117091;1186;22971;-56
2022/05/01 13:24:37;;;;;;;2.00;1.30;;;;;;;24.12;32.17;101016.83;117088;1188;24169;-49
2022/05/01 13:27:07;;;;;;;5.00;1.80;;;;;;;23.84;32.19;101017.03;117113;1186;22934;-51
2022/05/01 13:29:36;;;;;;;4.10;1.50;;;;;;;23.63;32.14;101019.29;117073;1186;21852;-55
2022/05/01 13:32:06;;;;;;;2.50;1.70;;;;;;;23.39;32.33;101015.06;117086;1187;21856;-54
2022/05/01 13:34:35;;;;;;;3.10;1.60;;;;;;;23.17;32.25;101013.40;117055;1185;21843;-50
2022/05/01 13:37:04;;;;;;;3.90;1.30;;;;;;;23.01;32.44;101013.86;117248;1185;22702;-55
2022/05/01 13:45:08;;;;;;;4.30;2.20;;;;;;;22.93;32.53;101009.50;117408;1185;23636;-50
2022/05/01 13:47:37;;;;;;;3.60;1.80;;;;;;;22.95;32.62;101005.67;117014;1185;21848;-50
2022/05/01 13:50:07;;;;;;;3.00;1.50;;;;;;;23.06;32.86;101002.90;116985;1189;21848;-50
2022/05/01 13:52:40;;;;;;;2.50;1.30;;;;;;;23.24;32.92;101003.38;117246;1185;21852;-50
2022/05/01 13:55:15;;;;;;;4.10;1.50;;;;;;;23.42;32.77;101001.48;117148;1185;22748;-49
2022/05/01 13:57:43;;;;;;;4.60;1.80;;;;;;;23.48;32.53;101002.61;117166;1185;23033;-50